• Join FlightAware (Why Join?)
  • Login
  • US Flag 
Rudolph Flight #1: Arrived! 
02:15AM EST


 

Airport Tracker/Info


-or-


 

Live Flight TrackerFlight Track Log ✈ F-HPJG ✈ 07-May-2013 ✈ LFPG / CDG - FAOR / JNB

Flight Track Log - Related Links

Times and Time Zones

All times are in EDT time to prevent confusion due to time zone crossing. See the F-HPJG flight status page for this flight to view local times or setup timezone preferences in your user account.

Time Position Orientation Groundspeed Altitude Reporting Facility
EDT Latitude Longitude Course Direction KTS MPH feet Rate Location/Type
05:34PM 48.9967 2.5724 265° West 157 181 300  Level FlightAware ADS-B
05:35PM 48.9962 2.5634 265° West 169 194 400 1,440 Climbing FlightAware ADS-B
05:35PM 48.9950 2.5439 265° West 164 189 900 1,500 Climbing FlightAware ADS-B
05:35PM 48.9941 2.5263 266° West 165 190 1,200 1,260 Climbing FlightAware ADS-B
05:35PM 48.9931 2.5066 266° West 168 193 1,600 1,380 Climbing FlightAware ADS-B
05:36PM 48.9916 2.4816 265° West 170 196 2,100 1,560 Climbing FlightAware ADS-B
05:36PM 48.9903 2.4611 264° West 172 198 2,600 1,800 Climbing FlightAware ADS-B
05:36PM 48.9890 2.4381 265° West 173 199 3,200 1,500 Climbing FlightAware ADS-B
05:37PM 48.9875 2.4132 265° West 182 209 3,600 960 Climbing FlightAware ADS-B
05:37PM 48.9865 2.3921 266° West 209 241 3,800 720 Climbing FlightAware ADS-B
05:37PM 48.9852 2.3674 265° West 233 268 4,000 720 Climbing FlightAware ADS-B
05:38PM 48.9836 2.3395 265° West 259 298 4,200 900 Climbing FlightAware ADS-B
05:38PM 48.9829 2.3310 263° West 266 306 4,300 1,320 Climbing FlightAware ADS-B
05:38PM 48.9816 2.3222 257° West 268 308 4,400 2,220 Climbing FlightAware ADS-B
05:38PM 48.9803 2.3165 251° West 268 308 4,600 3,000 Climbing FlightAware ADS-B
05:38PM 48.9780 2.3089 245° Southwest 266 306 4,800 2,640 Climbing FlightAware ADS-B
05:38PM 48.9750 2.3019 237° Southwest 265 305 5,000 3,720 Climbing FlightAware ADS-B
05:38PM 48.9716 2.2961 228° Southwest 264 304 5,300 3,300 Climbing FlightAware ADS-B
05:38PM 48.9672 2.2904 221° Southwest 262 302 5,500 2,640 Climbing FlightAware ADS-B
05:38PM 48.9633 2.2861 216° Southwest 261 300 5,700 3,420 Climbing FlightAware ADS-B
05:38PM 48.9602 2.2833 211° Southwest 261 300 5,900 3,000 Climbing FlightAware ADS-B
05:38PM 48.9546 2.2791 206° Southwest 263 303 6,100 2,460 Climbing FlightAware ADS-B
05:38PM 48.9467 2.2757 196° South 265 305 6,400 2,700 Climbing FlightAware ADS-B
05:38PM 48.9416 2.2746 188° South 266 306 6,600 2,700 Climbing FlightAware ADS-B
05:39PM 48.9218 2.2717 185° South 269 310 7,300 2,400 Climbing FlightAware ADS-B
05:39PM 48.9089 2.2699 185° South 276 318 7,700 2,280 Climbing FlightAware ADS-B
05:39PM 48.8893 2.2680 184° South 278 320 8,300 2,580 Climbing FlightAware ADS-B
05:39PM 48.8694 2.2663 183° South 281 323 9,000 2,700 Climbing FlightAware ADS-B
05:40PM 48.8484 2.2645 183° South 285 328 9,700 2,340 Climbing FlightAware ADS-B
05:40PM 48.8138 2.2615 183° South 294 338 10,700 1,620 Climbing FlightAware ADS-B
05:41PM 48.7686 2.2580 183° South 328 377 11,300 1,920 Climbing FlightAware ADS-B
05:41PM 48.7232 2.2535 184° South 330 380 12,700 2,580 Climbing FlightAware ADS-B
05:41PM 48.7096 2.2525 183° South 335 386 13,000 1,380 Climbing FlightAware ADS-B
05:42PM 48.6606 2.2611 173° South 364 419 13,600 1,260 Climbing FlightAware ADS-B
05:42PM 48.6083 2.2742 171° South 386 444 14,300 1,860 Climbing FlightAware ADS-B
05:43PM 48.5542 2.2865 171° South 395 455 15,500 2,400 Climbing FlightAware ADS-B
05:43PM 48.4989 2.2985 172° South 402 463 16,700 2,280 Climbing FlightAware ADS-B
05:44PM 48.4434 2.3107 172° South 409 471 17,800 2,160 Climbing FlightAware ADS-B
05:44PM 48.3867 2.3229 172° South 416 479 18,900 1,800 Climbing FlightAware ADS-B
05:45PM 48.3251 2.3363 172° South 428 493 19,700 1,680 Climbing FlightAware ADS-B
05:45PM 48.2752 2.3481 171° South 438 504 20,500 1,620 Climbing FlightAware ADS-B
05:46PM 48.1966 2.3781 166° South 451 519 21,500 1,680 Climbing FlightAware ADS-B
05:46PM 48.1215 2.4059 166° South 455 524 22,700 2,580 Climbing FlightAware ADS-B
05:47PM 48.0515 2.4320 166° South 439 505 24,600 2,280 Climbing FlightAware ADS-B
05:48PM 47.9799 2.4585 166° South 450 518 25,400 1,380 Climbing FlightAware ADS-B
05:48PM 47.9143 2.4831 166° South 457 526 26,200 1,500 Climbing FlightAware ADS-B
05:49PM 47.8487 2.5076 166° South 460 529 27,000 1,260 Climbing FlightAware ADS-B
05:49PM 47.7771 2.5343 166° South 471 542 27,600 1,200 Climbing FlightAware ADS-B
05:50PM 47.7124 2.5582 166° South 475 547 28,300 1,440 Climbing FlightAware ADS-B
05:50PM 47.6477 2.5821 166° South 476 548 29,100 1,500 Climbing FlightAware ADS-B
05:51PM 47.5792 2.6075 166° South 479 551 29,900 1,080 Climbing FlightAware ADS-B
05:52PM 47.4410 2.6580 166° South 490 564 30,900 840 Climbing FlightAware
05:53PM 47.3500 2.6910 166° South 498 573 31,500 900 Climbing FlightAware
05:53PM 47.2460 2.7290 166° South 507 583 32,200 900 Climbing FlightAware
05:54PM 47.1570 2.7620 166° South 512 589 32,800 900 Climbing FlightAware
05:55PM 47.0510 2.8000 166° South 519 597 33,500 1,080 Climbing FlightAware
05:55PM 46.9570 2.8340 166° South 516 594 34,400 1,080 Climbing FlightAware
05:56PM 46.8650 2.8670 166° South 510 587 35,000 420 Climbing FlightAware
05:57PM 46.7640 2.9030 166° South 510 587 35,000  Level FlightAware
05:58PM 46.6720 2.9350 167° South 510 587 35,000 180 Level FlightAware
05:58PM 46.5670 2.9730 166° South 514 592 35,300 480 Climbing FlightAware
05:59PM 46.4740 3.0060 166° South 518 596 35,700 660 Climbing FlightAware
06:00PM 46.3810 3.0390 166° South 519 597 36,200 720 Climbing FlightAware
06:00PM 46.2770 3.0750 167° South 520 598 36,800 540 Climbing FlightAware
06:01PM 46.1860 3.1070 166° South 518 596 37,000 120 Climbing FlightAware
06:02PM 46.0760 3.1450 167° South 516 594 37,000  Level FlightAware
06:02PM 45.9840 3.1770 166° South 515 593 37,000  Level FlightAware
06:03PM 45.8920 3.2090 166° South 514 592 37,000  Level FlightAware
06:04PM 45.7900 3.2440 167° South 515 593 37,000  Level FlightAware
06:05PM 45.6970 3.2760 166° South 514 592 37,000  Level FlightAware
06:05PM 45.5930 3.3110 167° South 515 593 37,000  Level FlightAware
06:06PM 45.5130 3.3390 166° South 517 595 37,000  Level FlightAware
06:07PM 45.4060 3.3750 167° South 519 597 37,000  Level FlightAware
06:07PM 45.3020 3.4100 167° South 518 596 37,000  Level FlightAware
06:08PM 45.2080 3.4420 167° South 519 597 37,000  Level FlightAware
06:09PM 45.1030 3.4770 167° South 521 600 37,000  Level FlightAware
06:09PM 45.0080 3.5090 167° South 521 600 37,000  Level FlightAware
06:10PM 44.9140 3.5400 167° South 522 601 37,000  Level FlightAware
06:11PM 44.8070 3.5760 167° South 523 602 37,000  Level FlightAware
06:12PM 44.7170 3.6050 167° South 523 602 37,000  Level FlightAware
06:12PM 44.6220 3.6370 167° South 524 603 37,000  Level FlightAware
06:13PM 44.5130 3.6730 167° South 527 606 37,000  Level FlightAware
06:14PM 44.4180 3.7140 163° South 537 618 37,000  Level FlightAware
06:14PM 44.3200 3.7750 156° South 535 616 37,000  Level FlightAware
06:15PM 44.2320 3.8280 157° South 537 618 37,000  Level FlightAware
06:16PM 44.1390 3.8830 157° South 539 620 37,000  Level FlightAware
06:16PM 44.0310 3.9480 157° South 540 621 37,000  Level FlightAware
06:17PM 43.9410 4.0020 157° South 538 619 37,000  Level FlightAware
06:18PM 43.8400 4.0620 157° South 538 619 37,000  Level FlightAware
06:19PM 43.7480 4.1160 157° South 541 623 37,000  Level FlightAware
06:19PM 43.6410 4.1790 157° South 543 625 37,000  Level FlightAware
06:20PM 43.5480 4.2340 157° South 545 627 37,000  Level FlightAware
06:21PM 43.4610 4.2850 157° South 546 628 37,000  Level FlightAware
06:21PM 43.3550 4.3460 157° South 547 629 37,000  Level FlightAware
06:22PM 43.2620 4.4000 157° South 546 628 37,000  Level FlightAware
06:23PM 43.1650 4.4430 162° South 541 623 37,000  Level FlightAware
06:23PM 43.0720 4.4820 163° South 541 623 37,000  Level FlightAware
06:24PM 42.9640 4.5280 163° South 542 624 37,000  Level FlightAware
06:25PM 42.8550 4.5730 163° South 543 625 37,000  Level FlightAware
06:26PM 42.7580 4.6140 163° South 544 626 37,000  Level FlightAware
06:26PM 42.6470 4.6600 163° South 545 627 37,000  Level FlightAware
06:27PM 42.5570 4.6970 163° South 544 626 37,000  Level FlightAware
06:28PM 42.4350 4.7480 163° South 543 625 37,000  Level FlightAware
06:29PM 42.3390 4.7870 163° South 543 625 37,000  Level FlightAware
06:29PM 42.2220 4.8350 163° South 548 631 37,000  Level FlightAware
06:30PM 42.1460 4.8660 163° South 549 632 37,000  Level FlightAware
06:31PM 42.0190 4.9180 163° South 552 635 37,000  Level FlightAware
06:31PM 41.9110 4.9620 163° South 554 638 37,000  Level FlightAware
06:32PM 41.8120 5.0020 163° South 555 639 37,000  Level FlightAware
06:33PM 41.7140 5.0410 163° South 558 642 37,000  Level FlightAware
06:33PM 41.6090 5.0830 163° South 559 643 37,000  Level FlightAware
06:34PM 41.4880 5.1320 163° South 559 643 37,000  Level FlightAware
06:35PM 41.3900 5.1710 163° South 562 647 37,000  Level FlightAware
06:36PM 41.2790 5.2150 163° South 565 650 37,000  Level FlightAware
06:36PM 41.1870 5.2510 164° South 568 654 37,000  Level FlightAware
06:37PM 41.0370 5.3110 163° South 566 651 37,000  Level FlightAware
06:38PM 40.9330 5.3520 163° South 563 648 37,000  Level FlightAware
06:39PM 40.7930 5.4070 163° South 560 644 37,000  Level FlightAware
06:40PM 40.6920 5.4460 164° South 558 642 37,000  Level FlightAware
06:40PM 40.5920 5.4860 163° South 558 642 37,000  Level FlightAware
06:41PM 40.5080 5.5200 163° South 558 642 37,000  Level FlightAware
06:41PM 40.4450 5.5450 163° South 558 642 37,000  Level FlightAware
06:42PM 40.3610 5.5790 163° South 558 642 37,000  Level FlightAware
06:43PM 40.2770 5.6130 163° South 558 642 37,000  Level FlightAware
06:44PM 40.1020 5.6740 165° South 552 635 37,000  Level FlightAware
06:44PM 40.0020 5.7120 164° South 552 635 37,000  Level FlightAware
06:45PM 39.8910 5.7540 164° South 553 636 37,000  Level FlightAware
06:46PM 39.7930 5.7910 164° South 553 636 37,000  Level FlightAware
06:46PM 39.6910 5.8300 164° South 555 639 37,000  Level FlightAware
06:47PM 39.5820 5.8710 164° South 554 638 37,000  Level FlightAware
06:48PM 39.4780 5.9100 164° South 554 638 37,000  Level FlightAware
06:48PM 39.3800 5.9470 164° South 554 638 37,000  Level FlightAware
06:49PM 39.2710 5.9870 164° South 553 636 37,000  Level FlightAware
06:50PM 39.1670 6.0260 164° South 552 635 37,000  Level FlightAware
06:51PM 39.0570 6.0670 164° South 550 633 37,000  Level FlightAware
06:51PM 38.9550 6.0970 167° South 541 623 37,000  Level FlightAware
06:52PM 38.8560 6.1160 171° South 549 632 37,000  Level FlightAware
06:53PM 38.7410 6.1390 171° South 549 632 37,000  Level FlightAware
06:53PM 38.6420 6.1590 171° South 550 633 37,000  Level FlightAware
06:54PM 38.5540 6.1770 171° South 550 633 37,000  Level FlightAware
06:55PM 38.4690 6.1940 171° South 550 633 37,000  Level FlightAware
06:55PM 38.3830 6.2110 171° South 550 633 37,000  Level FlightAware
06:56PM 38.2130 6.2430 172° South 539 620 37,000  Level FlightAware
06:57PM 38.1260 6.2610 171° South 540 621 37,000  Level FlightAware
06:57PM 38.0420 6.2770 171° South 540 621 37,000  Level FlightAware
06:58PM 37.9580 6.2940 171° South 540 621 37,000  Level FlightAware
06:59PM 37.8740 6.3110 171° South 540 621 37,000  Level FlightAware
07:00PM 37.7690 6.3320 171° South 540 621 37,000  Level FlightAware
07:00PM 37.6850 6.3490 171° South 540 621 37,000  Level FlightAware
07:01PM 37.6010 6.3660 171° South 540 621 37,000  Level FlightAware
07:02PM 37.5180 6.3820 171° South 540 621 37,000  Level FlightAware
07:02PM 37.4340 6.3990 171° South 540 621 37,000  Level FlightAware
07:03PM 37.3290 6.4200 171° South 540 621 37,000  Level FlightAware
07:04PM 37.2450 6.4370 171° South 540 621 37,000  Level FlightAware
07:04PM 37.1610 6.4530 171° South 540 621 37,000  Level FlightAware
07:05PM 37.0770 6.4700 171° South 540 621 37,000  Level FlightAware
07:06PM 36.9930 6.4870 171° South 540 621 37,000  Level FlightAware
07:08PM 36.7909 6.5854 159° South  Level Estimated
07:09PM 36.6731 6.6424 159° South  Level Estimated
07:10PM 36.5554 6.6993 159° South  Level Estimated
07:11PM 36.4375 6.7560 159° South  Level Estimated
07:12PM 36.3197 6.8126 159° South  Level Estimated
07:13PM 36.2018 6.8689 159° South  Level Estimated
07:14PM 36.0839 6.9251 159° South  Level Estimated
07:15PM 35.9660 6.9812 159° South  Level Estimated
07:16PM 35.8481 7.0371 159° South  Level Estimated
07:17PM 35.7301 7.0928 159° South  Level Estimated
07:18PM 35.6121 7.1483 159° South  Level Estimated
07:19PM 35.4941 7.2037 159° South  Level Estimated
07:20PM 35.3760 7.2589 159° South  Level Estimated
07:21PM 35.2579 7.3139 159° South  Level Estimated
07:22PM 35.1399 7.3688 159° South  Level Estimated
07:23PM 35.0217 7.4236 159° South  Level Estimated
07:24PM 34.9005 7.4796 159° South  Level Estimated
07:25PM 34.7792 7.5354 159° South  Level Estimated
07:26PM 34.6578 7.5911 159° South  Level Estimated
07:27PM 34.5365 7.6466 159° South  Level Estimated
07:28PM 34.4151 7.7020 159° South  Level Estimated
07:29PM 34.2938 7.7572 159° South  Level Estimated
07:30PM 34.1723 7.8122 159° South  Level Estimated
07:31PM 34.0509 7.8671 159° South  Level Estimated
07:32PM 33.9294 7.9218 160° South  Level Estimated
07:33PM 33.8079 7.9764 160° South  Level Estimated
07:34PM 33.6864 8.0308 160° South  Level Estimated
07:35PM 33.5649 8.0850 160° South  Level Estimated
07:36PM 33.4433 8.1392 160° South  Level Estimated
07:37PM 33.3217 8.1931 160° South  Level Estimated
07:38PM 33.2001 8.2469 160° South  Level Estimated
07:39PM 33.0785 8.3006 160° South  Level Estimated
07:40PM 32.9568 8.3541 160° South  Level Estimated
07:41PM 32.8351 8.4074 160° South  Level Estimated
07:42PM 32.7134 8.4607 160° South  Level Estimated
07:43PM 32.5917 8.5137 160° South  Level Estimated
07:44PM 32.4700 8.5666 160° South  Level Estimated
07:45PM 32.3482 8.6194 160° South  Level Estimated
07:46PM 32.2264 8.6721 160° South  Level Estimated
07:47PM 32.1046 8.7246 160° South  Level Estimated
07:48PM 31.9828 8.7769 160° South  Level Estimated
07:49PM 31.8609 8.8291 160° South  Level Estimated
07:50PM 31.7390 8.8812 160° South  Level Estimated
07:51PM 31.6171 8.9332 160° South  Level Estimated
07:52PM 31.4952 8.9850 160° South  Level Estimated
07:53PM 31.3733 9.0366 160° South  Level Estimated
07:54PM 31.2513 9.0882 160° South  Level Estimated
07:55PM 31.1293 9.1396 160° South  Level Estimated
07:56PM 31.0073 9.1909 160° South  Level Estimated
07:57PM 30.8853 9.2420 160° South  Level Estimated
07:58PM 30.7633 9.2930 160° South  Level Estimated
07:59PM 30.6412 9.3439 160° South  Level Estimated
08:00PM 30.5191 9.3947 160° South  Level Estimated
08:01PM 30.3970 9.4453 160° South  Level Estimated
08:02PM 30.2749 9.4958 160° South  Level Estimated
08:03PM 30.1528 9.5462 160° South  Level Estimated
08:04PM 30.0306 9.5964 160° South  Level Estimated
08:05PM 29.9084 9.6466 160° South  Level Estimated
08:06PM 29.7862 9.6966 160° South  Level Estimated
08:07PM 29.6640 9.7465 160° South  Level Estimated
08:08PM 29.5418 9.7962 160° South  Level Estimated
08:09PM 29.4195 9.8459 161° South  Level Estimated
08:10PM 29.2973 9.8954 161° South  Level Estimated
08:11PM 29.1750 9.9448 161° South  Level Estimated
08:12PM 29.0527 9.9941 161° South  Level Estimated
08:13PM 28.9303 10.0433 161° South  Level Estimated
08:14PM 28.8080 10.0923 161° South  Level Estimated
08:15PM 28.6856 10.1412 161° South  Level Estimated
08:16PM 28.5633 10.1901 161° South  Level Estimated
08:17PM 28.4409 10.2388 161° South  Level Estimated
08:18PM 28.3185 10.2874 161° South  Level Estimated
08:19PM 28.1960 10.3359 161° South  Level Estimated
08:20PM 28.0736 10.3843 161° South  Level Estimated
08:21PM 27.9511 10.4325 161° South  Level Estimated
08:22PM 27.8286 10.4807 161° South  Level Estimated
08:23PM 27.7061 10.5287 161° South  Level Estimated
08:24PM 27.5836 10.5767 161° South  Level Estimated
08:25PM 27.4611 10.6245 161° South  Level Estimated
08:26PM 27.3385 10.6722 161° South  Level Estimated
08:27PM 27.2160 10.7199 161° South  Level Estimated
08:28PM 27.0934 10.7674 161° South  Level Estimated
08:29PM 26.9708 10.8148 161° South  Level Estimated
08:30PM 26.8482 10.8621 161° South  Level Estimated
08:31PM 26.7256 10.9093 161° South  Level Estimated
08:32PM 26.6029 10.9564 161° South  Level Estimated
08:33PM 26.4803 11.0034 161° South  Level Estimated
08:34PM 26.3576 11.0503 161° South  Level Estimated
08:35PM 26.2349 11.0971 161° South  Level Estimated
08:36PM 26.1122 11.1439 161° South  Level Estimated
08:37PM 25.9895 11.1905 161° South  Level Estimated
08:38PM 25.8668 11.2370 161° South  Level Estimated
08:39PM 25.7440 11.2834 161° South  Level Estimated
08:40PM 25.6213 11.3297 161° South  Level Estimated
08:41PM 25.4985 11.3759 161° South  Level Estimated
08:42PM 25.3757 11.4221 161° South  Level Estimated
08:43PM 25.2529 11.4681 161° South  Level Estimated
08:44PM 25.1301 11.5141 161° South  Level Estimated
08:45PM 25.0072 11.5599 161° South  Level Estimated
08:46PM 24.8844 11.6057 161° South  Level Estimated
08:47PM 24.7615 11.6513 161° South  Level Estimated
08:48PM 24.6386 11.6969 161° South  Level Estimated
08:49PM 24.5157 11.7424 161° South  Level Estimated
08:50PM 24.3928 11.7878 161° South  Level Estimated
08:51PM 24.2699 11.8331 161° South  Level Estimated
08:52PM 24.1470 11.8783 161° South  Level Estimated
08:53PM 24.0240 11.9235 161° South  Level Estimated
08:54PM 23.9011 11.9685 161° South  Level Estimated
08:55PM 23.7781 12.0135 161° South  Level Estimated
08:56PM 23.6551 12.0584 162° South  Level Estimated
08:57PM 23.5321 12.1032 162° South  Level Estimated
08:58PM 23.4091 12.1479 162° South  Level Estimated
08:59PM 23.2861 12.1925 162° South  Level Estimated
09:00PM 23.1631 12.2371 162° South  Level Estimated
09:01PM 23.0400 12.2815 162° South  Level Estimated
09:02PM 22.9170 12.3259 162° South  Level Estimated
09:03PM 22.7939 12.3702 162° South  Level Estimated
09:04PM 22.6708 12.4144 162° South  Level Estimated
09:05PM 22.5477 12.4586 162° South  Level Estimated
09:06PM 22.4246 12.5027 162° South  Level Estimated
09:07PM 22.3015 12.5466 162° South  Level Estimated
09:08PM 22.1784 12.5906 162° South  Level Estimated
09:09PM 22.0552 12.6344 162° South  Level Estimated
09:10PM 21.9321 12.6781 162° South  Level Estimated
09:11PM 21.8089 12.7218 162° South  Level Estimated
09:12PM 21.6857 12.7654 162° South  Level Estimated
09:13PM 21.5625 12.8090 162° South  Level Estimated
09:14PM 21.4393 12.8524 162° South  Level Estimated
09:15PM 21.3161 12.8958 162° South  Level Estimated
09:16PM 21.1929 12.9391 162° South  Level Estimated
09:17PM 21.0697 12.9824 162° South  Level Estimated
09:18PM 20.9464 13.0255 162° South  Level Estimated
09:19PM 20.8232 13.0686 162° South  Level Estimated
09:20PM 20.6999 13.1117 162° South  Level Estimated
09:21PM 20.5766 13.1546 162° South  Level Estimated
09:22PM 20.4533 13.1975 162° South  Level Estimated
09:23PM 20.3300 13.2403 162° South  Level Estimated
09:24PM 20.2067 13.2831 162° South  Level Estimated
09:25PM 20.0834 13.3258 162° South  Level Estimated
09:26PM 19.9601 13.3684 162° South  Level Estimated
09:27PM 19.8367 13.4109 162° South  Level Estimated
09:28PM 19.7134 13.4534 162° South  Level Estimated
09:29PM 19.5900 13.4958 162° South  Level Estimated
09:30PM 19.4667 13.5382 162° South  Level Estimated
09:31PM 19.3433 13.5805 162° South  Level Estimated
09:32PM 19.2199 13.6227 162° South  Level Estimated
09:33PM 19.0965 13.6648 162° South  Level Estimated
09:34PM 18.9731 13.7069 162° South  Level Estimated
09:35PM 18.8496 13.7490 162° South  Level Estimated
09:36PM 18.7262 13.7909 162° South  Level Estimated
09:37PM 18.6028 13.8329 162° South  Level Estimated
09:38PM 18.4793 13.8747 162° South  Level Estimated
09:39PM 18.3559 13.9165 162° South  Level Estimated
09:40PM 18.2324 13.9582 162° South  Level Estimated
09:41PM 18.1089 13.9999 162° South  Level Estimated
09:42PM 17.9855 14.0415 162° South  Level Estimated
09:43PM 17.8620 14.0831 162° South  Level Estimated
09:44PM 17.7385 14.1246 162° South  Level Estimated
09:45PM 17.6150 14.1660 162° South  Level Estimated
09:46PM 17.4914 14.2074 162° South  Level Estimated
09:47PM 17.3679 14.2487 162° South  Level Estimated
09:48PM 17.2444 14.2900 162° South  Level Estimated
09:49PM 17.1208 14.3312 162° South  Level Estimated
09:50PM 16.9973 14.3724 162° South  Level Estimated
09:51PM 16.8737 14.4135 162° South  Level Estimated
09:52PM 16.7502 14.4545 162° South  Level Estimated
09:53PM 16.6266 14.4955 162° South  Level Estimated
09:54PM 16.5030 14.5365 162° South  Level Estimated
09:55PM 16.3794 14.5774 162° South  Level Estimated
09:56PM 16.2558 14.6182 162° South  Level Estimated
09:57PM 16.1322 14.6590 162° South  Level Estimated
09:58PM 16.0086 14.6997 162° South  Level Estimated
09:59PM 15.8850 14.7404 162° South  Level Estimated
10:00PM 15.7614 14.7811 162° South  Level Estimated
10:01PM 15.6377 14.8217 162° South  Level Estimated
10:02PM 15.5141 14.8622 162° South  Level Estimated
10:03PM 15.3904 14.9027 162° South  Level Estimated
10:04PM 15.2668 14.9431 162° South  Level Estimated
10:05PM 15.1431 14.9836 162° South  Level Estimated
10:06PM 15.0194 15.0239 163° South  Level Estimated
10:07PM 14.8958 15.0642 163° South  Level Estimated
10:08PM 14.7721 15.1045 163° South  Level Estimated
10:09PM 14.6484 15.1447 163° South  Level Estimated
10:10PM 14.5247 15.1848 163° South  Level Estimated
10:11PM 14.4010 15.2250 163° South  Level Estimated
10:12PM 14.2772 15.2650 163° South  Level Estimated
10:13PM 14.1535 15.3051 163° South  Level Estimated
10:14PM 14.0298 15.3451 163° South  Level Estimated
10:15PM 13.9060 15.3850 163° South  Level Estimated
10:16PM 13.7823 15.4249 163° South  Level Estimated
10:17PM 13.6586 15.4648 163° South  Level Estimated
10:18PM 13.5348 15.5046 163° South  Level Estimated
10:19PM 13.4110 15.5444 163° South  Level Estimated
10:20PM 13.2873 15.5841 163° South  Level Estimated
10:21PM 13.1635 15.6238 163° South  Level Estimated
10:22PM 13.0397 15.6635 163° South  Level Estimated
10:23PM 12.9159 15.7031 163° South  Level Estimated
10:24PM 12.7921 15.7427 163° South  Level Estimated
10:25PM 12.6684 15.7822 163° South  Level Estimated
10:26PM 12.5445 15.8217 163° South  Level Estimated
10:27PM 12.4207 15.8612 163° South  Level Estimated
10:28PM 12.2969 15.9006 163° South  Level Estimated
10:29PM 12.1731 15.9400 163° South  Level Estimated
10:30PM 12.0493 15.9794 163° South  Level Estimated
10:31PM 11.9255 16.0187 163° South  Level Estimated
10:32PM 11.8016 16.0580 163° South  Level Estimated
10:33PM 11.6778 16.0972 163° South  Level Estimated
10:34PM 11.5539 16.1364 163° South  Level Estimated
10:35PM 11.4301 16.1756 163° South  Level Estimated
10:36PM 11.3062 16.2147 163° South  Level Estimated
10:37PM 11.1824 16.2538 163° South  Level Estimated
10:38PM 11.0585 16.2929 163° South  Level Estimated
10:39PM 10.9346 16.3319 163° South  Level Estimated
10:40PM 10.8107 16.3710 163° South  Level Estimated
10:41PM 10.6868 16.4099 163° South  Level Estimated
10:42PM 10.5630 16.4489 163° South  Level Estimated
10:43PM 10.4391 16.4878 163° South  Level Estimated
10:44PM 10.3152 16.5267 163° South  Level Estimated
10:45PM 10.1913 16.5655 163° South  Level Estimated
10:46PM 10.0674 16.6043 163° South  Level Estimated
10:47PM 9.9434 16.6431 163° South  Level Estimated
10:48PM 9.8195 16.6819 163° South  Level Estimated
10:49PM 9.6956 16.7206 163° South  Level Estimated
10:50PM 9.5717 16.7593 163° South  Level Estimated
10:51PM 9.4478 16.7980 163° South  Level Estimated
10:52PM 9.3238 16.8367 163° South  Level Estimated
10:53PM 9.1999 16.8753 163° South  Level Estimated
10:54PM 9.0759 16.9139 163° South  Level Estimated
10:55PM 8.9520 16.9524 163° South  Level Estimated
10:56PM 8.8281 16.9910 163° South  Level Estimated
10:57PM 8.7041 17.0295 163° South  Level Estimated
10:58PM 8.5801 17.0680 163° South  Level Estimated
10:59PM 8.4562 17.1064 163° South  Level Estimated
11:00PM 8.3322 17.1449 163° South  Level Estimated
11:01PM 8.2083 17.1833 163° South  Level Estimated
11:02PM 8.0843 17.2217 163° South  Level Estimated
11:03PM 7.9603 17.2600 163° South  Level Estimated
11:04PM 7.8363 17.2984 163° South  Level Estimated
11:05PM 7.7123 17.3367 163° South  Level Estimated
11:06PM 7.5884 17.3750 163° South  Level Estimated
11:07PM 7.4644 17.4133 163° South  Level Estimated
11:08PM 7.3404 17.4515 163° South  Level Estimated
11:09PM 7.2164 17.4898 163° South  Level Estimated
11:10PM 7.0924 17.5280 163° South  Level Estimated
11:11PM 6.9684 17.5662 163° South  Level Estimated
11:12PM 6.8444 17.6043 163° South  Level Estimated
11:13PM 6.7204 17.6425 163° South  Level Estimated
11:14PM 6.5964 17.6806 163° South  Level Estimated
11:15PM 6.4724 17.7187 163° South  Level Estimated
11:16PM 6.3483 17.7568 163° South  Level Estimated
11:17PM 6.2243 17.7949 163° South  Level Estimated
11:18PM 6.1003 17.8330 163° South  Level Estimated
11:19PM 5.9763 17.8710 163° South  Level Estimated
11:20PM 5.8522 17.9090 163° South  Level Estimated
11:21PM 5.7282 17.9471 163° South  Level Estimated
11:22PM 5.6042 17.9850 163° South  Level Estimated
11:23PM 5.4802 18.0230 163° South  Level Estimated
11:24PM 5.3561 18.0610 163° South  Level Estimated
11:25PM 5.2321 18.0989 163° South  Level Estimated
11:26PM 5.1080 18.1368 163° South  Level Estimated
11:27PM 4.9840 18.1747 163° South  Level Estimated
11:28PM 4.8599 18.2127 163° South  Level Estimated
11:29PM 4.7359 18.2505 163° South  Level Estimated
11:30PM 4.6118 18.2884 163° South  Level Estimated
11:31PM 4.4878 18.3263 163° South  Level Estimated
11:32PM 4.3637 18.3641 163° South  Level Estimated
11:33PM 4.2397 18.4020 163° South  Level Estimated
11:34PM 4.1156 18.4398 163° South  Level Estimated
11:35PM 3.9916 18.4776 163° South  Level Estimated
11:36PM 3.8675 18.5154 163° South  Level Estimated
11:37PM 3.7434 18.5532 163° South  Level Estimated
11:38PM 3.6194 18.5910 163° South  Level Estimated
11:39PM 3.4953 18.6287 163° South  Level Estimated
11:40PM 3.3712 18.6665 163° South  Level Estimated
11:41PM 3.2472 18.7042 163° South  Level Estimated
11:42PM 3.1231 18.7420 163° South  Level Estimated
11:43PM 2.9990 18.7797 163° South  Level Estimated
11:44PM 2.8750 18.8174 163° South  Level Estimated
11:45PM 2.7509 18.8551 163° South  Level Estimated
11:46PM 2.6268 18.8928 163° South  Level Estimated
11:47PM 2.5027 18.9305 163° South  Level Estimated
11:48PM 2.3786 18.9682 163° South  Level Estimated
11:49PM 2.2546 19.0059 163° South  Level Estimated
11:50PM 2.1305 19.0436 163° South  Level Estimated
11:51PM 2.0064 19.0812 163° South  Level Estimated
11:52PM 1.8823 19.1189 163° South  Level Estimated
11:53PM 1.7582 19.1566 163° South  Level Estimated
11:54PM 1.6342 19.1942 163° South  Level Estimated
11:55PM 1.5101 19.2319 163° South  Level Estimated
11:56PM 1.3860 19.2695 163° South  Level Estimated
11:57PM 1.2619 19.3071 163° South  Level Estimated
11:58PM 1.1378 19.3448 163° South  Level Estimated
11:59PM 1.0137 19.3824 163° South  Level Estimated
12:00AM 0.8896 19.4200 163° South  Level Estimated
12:01AM 0.7656 19.4577 163° South  Level Estimated
12:02AM 0.6415 19.4953 163° South  Level Estimated
12:03AM 0.5174 19.5329 163° South  Level Estimated
12:04AM 0.3933 19.5706 163° South  Level Estimated
12:05AM 0.2692 19.6082 163° South  Level Estimated
12:06AM 0.1451 19.6458 163° South  Level Estimated
12:07AM 0.0210 19.6834 163° South  Level Estimated
12:08AM -0.1031 19.7210 163° South  Level Estimated
12:09AM -0.2272 19.7586 163° South  Level Estimated
12:10AM -0.3512 19.7963 163° South  Level Estimated
12:11AM -0.4753 19.8339 163° South  Level Estimated
12:12AM -0.5994 19.8715 163° South  Level Estimated
12:13AM -0.7235 19.9091 163° South  Level Estimated
12:14AM -0.8476 19.9468 163° South  Level Estimated
12:15AM -0.9717 19.9844 163° South  Level Estimated
12:16AM -1.0958 20.0220 163° South  Level Estimated
12:17AM -1.2199 20.0597 163° South  Level Estimated
12:18AM -1.3440 20.0973 163° South  Level Estimated
12:19AM -1.4681 20.1350 163° South  Level Estimated
12:20AM -1.5921 20.1726 163° South  Level Estimated
12:21AM -1.7162 20.2103 163° South  Level Estimated
12:22AM -1.8403 20.2479 163° South  Level Estimated
12:23AM -1.9644 20.2856 163° South  Level Estimated
12:24AM -2.0885 20.3232 163° South  Level Estimated
12:25AM -2.2125 20.3609 163° South  Level Estimated
12:26AM -2.3366 20.3986 163° South  Level Estimated
12:27AM -2.4607 20.4363 163° South  Level Estimated
12:28AM -2.5848 20.4740 163° South  Level Estimated
12:29AM -2.7089 20.5117 163° South  Level Estimated
12:30AM -2.8329 20.5494 163° South  Level Estimated
12:31AM -2.9570 20.5871 163° South  Level Estimated
12:32AM -3.0811 20.6248 163° South  Level Estimated
12:33AM -3.2051 20.6625 163° South  Level Estimated
12:34AM -3.3292 20.7003 163° South  Level Estimated
12:35AM -3.4533 20.7380 163° South  Level Estimated
12:36AM -3.5774 20.7758 163° South  Level Estimated
12:37AM -3.7014 20.8136 163° South  Level Estimated
12:38AM -3.8255 20.8514 163° South  Level Estimated
12:39AM -3.9495 20.8891 163° South  Level Estimated
12:40AM -4.0736 20.9270 163° South  Level Estimated
12:41AM -4.1977 20.9648 163° South  Level Estimated
12:42AM -4.3217 21.0026 163° South  Level Estimated
12:43AM -4.4458 21.0404 163° South  Level Estimated
12:44AM -4.5698 21.0783 163° South  Level Estimated
12:45AM -4.6939 21.1162 163° South  Level Estimated
12:46AM -4.8179 21.1540 163° South  Level Estimated
12:47AM -4.9420 21.1919 163° South  Level Estimated
12:48AM -5.0660 21.2298 163° South  Level Estimated
12:49AM -5.1901 21.2678 163° South  Level Estimated
12:50AM -5.3141 21.3057 163° South  Level Estimated
12:51AM -5.4381 21.3437 163° South  Level Estimated
12:52AM -5.5622 21.3816 163° South  Level Estimated
12:53AM -5.6862 21.4196 163° South  Level Estimated
12:54AM -5.8102 21.4576 163° South  Level Estimated
12:55AM -5.9343 21.4956 163° South  Level Estimated
12:56AM -6.0583 21.5337 163° South  Level Estimated
12:57AM -6.1823 21.5717 163° South  Level Estimated
12:58AM -6.3063 21.6098 163° South  Level Estimated
12:59AM -6.4304 21.6479 163° South  Level Estimated
01:00AM -6.5544 21.6860 163° South  Level Estimated
01:01AM -6.6784 21.7241 163° South  Level Estimated
01:02AM -6.8024 21.7623 163° South  Level Estimated
01:03AM -6.9264 21.8004 163° South  Level Estimated
01:04AM -7.0504 21.8386 163° South  Level Estimated
01:05AM -7.1744 21.8768 163° South  Level Estimated
01:06AM -7.2984 21.9151 163° South  Level Estimated
01:07AM -7.4224 21.9533 163° South  Level Estimated
01:08AM -7.5464 21.9916 163° South  Level Estimated
01:09AM -7.6704 22.0299 163° South  Level Estimated
01:10AM -7.7944 22.0682 163° South  Level Estimated
01:11AM -7.9183 22.1065 163° South  Level Estimated
01:12AM -8.0423 22.1449 163° South  Level Estimated
01:13AM -8.1663 22.1833 163° South  Level Estimated
01:14AM -8.2902 22.2217 163° South  Level Estimated
01:15AM -8.4142 22.2601 163° South  Level Estimated
01:16AM -8.5382 22.2986 163° South  Level Estimated
01:17AM -8.6621 22.3370 163° South  Level Estimated
01:18AM -8.7861 22.3756 163° South  Level Estimated
01:19AM -8.9100 22.4141 163° South  Level Estimated
01:20AM -9.0340 22.4527 163° South  Level Estimated
01:21AM -9.1579 22.4912 163° South  Level Estimated
01:22AM -9.2819 22.5298 163° South  Level Estimated
01:23AM -9.4058 22.5685 163° South  Level Estimated
01:24AM -9.5295 22.6071 163° South  Level Estimated
01:25AM -9.6532 22.6457 163° South  Level Estimated
01:26AM -9.7770 22.6844 163° South  Level Estimated
01:27AM -9.9007 22.7231 163° South  Level Estimated
01:28AM -10.0244 22.7618 163° South  Level Estimated
01:29AM -10.1481 22.8005 163° South  Level Estimated
01:30AM -10.2718 22.8393 163° South  Level Estimated
01:31AM -10.3955 22.8781 163° South  Level Estimated
01:32AM -10.5192 22.9170 163° South  Level Estimated
01:33AM -10.6429 22.9558 163° South  Level Estimated
01:34AM -10.7665 22.9947 163° South  Level Estimated
01:35AM -10.8902 23.0337 163° South  Level Estimated
01:36AM -11.0139 23.0726 163° South  Level Estimated
01:37AM -11.1376 23.1116 163° South  Level Estimated
01:38AM -11.2612 23.1507 163° South  Level Estimated
01:39AM -11.3849 23.1897 163° South  Level Estimated
01:40AM -11.5085 23.2288 163° South  Level Estimated
01:41AM -11.6322 23.2679 163° South  Level Estimated
01:42AM -11.7558 23.3071 163° South  Level Estimated
01:43AM -11.8794 23.3463 163° South  Level Estimated
01:44AM -12.0031 23.3855 163° South  Level Estimated
01:45AM -12.1267 23.4248 163° South  Level Estimated
01:46AM -12.2503 23.4641 163° South  Level Estimated
01:47AM -12.3739 23.5035 163° South  Level Estimated
01:48AM -12.4975 23.5429 163° South  Level Estimated
01:49AM -12.6211 23.5823 163° South  Level Estimated
01:50AM -12.7447 23.6217 163° South  Level Estimated
01:51AM -12.8683 23.6612 163° South  Level Estimated
01:52AM -12.9919 23.7008 163° South  Level Estimated
01:53AM -13.1155 23.7404 163° South  Level Estimated
01:54AM -13.2391 23.7800 163° South  Level Estimated
01:55AM -13.3626 23.8196 163° South  Level Estimated
01:56AM -13.4862 23.8593 163° South  Level Estimated
01:57AM -13.6097 23.8991 163° South  Level Estimated
01:58AM -13.7333 23.9389 163° South  Level Estimated
01:59AM -13.8568 23.9787 163° South  Level Estimated
02:00AM -13.9804 24.0185 163° South  Level Estimated
02:01AM -14.1039 24.0585 163° South  Level Estimated
02:02AM -14.2274 24.0984 163° South  Level Estimated
02:03AM -14.3509 24.1384 163° South  Level Estimated
02:04AM -14.4744 24.1784 163° South  Level Estimated
02:05AM -14.5979 24.2185 163° South  Level Estimated
02:06AM -14.7214 24.2586 163° South  Level Estimated
02:07AM -14.8449 24.2988 163° South  Level Estimated
02:08AM -14.9684 24.3390 163° South  Level Estimated
02:09AM -15.0919 24.3793 163° South  Level Estimated
02:10AM -15.2153 24.4196 163° South  Level Estimated
02:11AM -15.3388 24.4600 163° South  Level Estimated
02:12AM -15.4622 24.5004 162° South  Level Estimated
02:13AM -15.5857 24.5408 162° South  Level Estimated
02:14AM -15.7091 24.5813 162° South  Level Estimated
02:15AM -15.8326 24.6219 162° South  Level Estimated
02:16AM -15.9560 24.6625 162° South  Level Estimated
02:17AM -16.0794 24.7031 162° South  Level Estimated
02:18AM -16.2028 24.7438 162° South  Level Estimated
02:19AM -16.3262 24.7846 162° South  Level Estimated
02:20AM -16.4496 24.8254 162° South  Level Estimated
02:21AM -16.5730 24.8663 162° South  Level Estimated
02:22AM -16.6963 24.9072 162° South  Level Estimated
02:23AM -16.8197 24.9481 162° South  Level Estimated
02:24AM -16.9431 24.9892 162° South  Level Estimated
02:25AM -17.0664 25.0302 162° South  Level Estimated
02:26AM -17.1898 25.0714 162° South  Level Estimated
02:27AM -17.3131 25.1125 162° South  Level Estimated
02:28AM -17.4364 25.1538 162° South  Level Estimated
02:29AM -17.5597 25.1951 162° South  Level Estimated
02:30AM -17.6830 25.2364 162° South  Level Estimated
02:31AM -17.8063 25.2778 162° South  Level Estimated
02:32AM -17.9296 25.3193 162° South  Level Estimated
02:33AM -18.0529 25.3608 162° South  Level Estimated
02:34AM -18.1762 25.4024 162° South  Level Estimated
02:35AM -18.2994 25.4440 162° South  Level Estimated
02:36AM -18.4227 25.4857 162° South  Level Estimated
02:37AM -18.5459 25.5275 162° South  Level Estimated
02:38AM -18.6692 25.5693 162° South  Level Estimated
02:39AM -18.7924 25.6112 162° South  Level Estimated
02:40AM -18.9156 25.6531 162° South  Level Estimated
02:41AM -19.0389 25.6951 162° South  Level Estimated
02:42AM -19.1621 25.7372 162° South  Level Estimated
02:43AM -19.2852 25.7793 162° South  Level Estimated
02:44AM -19.4084 25.8215 162° South  Level Estimated
02:45AM -19.5316 25.8637 162° South  Level Estimated
02:46AM -19.6548 25.9061 162° South  Level Estimated
02:47AM -19.7779 25.9484 162° South  Level Estimated
02:47AM -23.2870 25.1190 162° South 513 590 39,000  Level FlightAware
02:48AM -19.9010 25.9909 162° South  Level Estimated
02:48AM -23.3750 25.1660 154° Southeast 514 592 39,000  Level FlightAware
02:48AM -23.4670 25.2160 154° Southeast 516 594 39,000  Level FlightAware
02:49AM -23.5530 25.2620 154° Southeast 518 596 39,000  Level FlightAware
02:50AM -23.6400 25.3090 154° Southeast 518 596 39,000  Level FlightAware
02:50AM -23.7380 25.3620 154° Southeast 518 596 39,000  Level FlightAware
02:51AM -23.8250 25.4090 154° Southeast 521 600 39,000  Level FlightAware
02:52AM -23.9190 25.4610 153° Southeast 521 600 39,000  Level FlightAware
02:53AM -24.0720 25.5440 154° Southeast 522 601 39,000  Level FlightAware
02:54AM -24.1580 25.5910 153° Southeast 523 602 39,000  Level FlightAware
02:54AM -24.2450 25.6390 153° Southeast 523 602 39,000 -180 Level FlightAware
02:55AM -24.3450 25.6930 154° Southeast 524 603 38,800 -600 Descending FlightAware
02:56AM -24.4320 25.7420 153° Southeast 522 601 38,200 -1,200 Descending FlightAware
02:56AM -24.5160 25.7960 150° Southeast 537 618 37,200 -900 Descending FlightAware
02:57AM -24.5990 25.8750 139° Southeast 549 632 37,000 -180 Descending FlightAware
02:58AM -24.6580 25.9660 126° Southeast 555 639 37,000 -360 Level FlightAware
02:59AM -24.6810 26.0910 101° East 545 627 36,500 -1,380 Descending FlightAware
02:59AM -24.6950 26.1980 98° East 550 633 35,100 -2,280 Descending FlightAware
03:00AM -24.7120 26.3120 99° East 555 639 33,500 -1,920 Descending FlightAware
03:01AM -24.7630 26.4200 117° Southeast 540 621 32,400 -1,500 Descending FlightAware
03:01AM -24.8340 26.4980 135° Southeast 526 605 31,400 -1,380 Descending FlightAware
03:02AM -24.9100 26.5790 136° Southeast 514 592 30,500 -1,440 Descending FlightAware
03:03AM -24.9800 26.6540 136° Southeast 504 580 29,400 -1,440 Descending FlightAware
03:03AM -25.0460 26.7230 137° Southeast 492 566 28,600 -1,140 Descending FlightAware
03:04AM -25.1190 26.8020 136° Southeast 476 548 27,800 -1,020 Descending FlightAware
03:05AM -25.1800 26.8660 136° Southeast 460 529 27,200 -1,140 Descending FlightAware
03:06AM -25.2490 26.9400 136° Southeast 450 518 26,200 -1,380 Descending FlightAware
03:06AM -25.3080 27.0030 136° Southeast 440 506 25,300 -1,440 Descending FlightAware
03:07AM -25.3660 27.0650 136° Southeast 435 501 24,300 -1,440 Descending FlightAware
03:08AM -25.4320 27.1360 136° Southeast 425 489 23,300 -1,320 Descending FlightAware
03:08AM -25.4850 27.1930 136° Southeast 415 478 22,500 -1,320 Descending FlightAware
03:09AM -25.5410 27.2520 136° Southeast 410 472 21,600 -1,380 Descending FlightAware
03:10AM -25.6030 27.3180 136° Southeast 400 460 20,600 -1,320 Descending FlightAware
03:10AM -25.6560 27.3760 135° Southeast 392 451 19,800 -960 Descending FlightAware
03:11AM -25.7140 27.4390 136° Southeast 371 427 19,300 -780 Descending FlightAware
03:12AM -25.7510 27.5010 124° Southeast 358 412 18,700 -1,020 Descending FlightAware
03:13AM -25.7890 27.5690 122° Southeast 351 404 17,900 -1,200 Descending FlightAware
03:13AM -25.8230 27.6290 122° Southeast 348 400 17,000 -1,380 Descending FlightAware
03:14AM -25.8630 27.7000 122° Southeast 345 397 16,000 -1,380 Descending FlightAware
03:15AM -25.8960 27.7600 121° Southeast 343 395 15,100 -1,200 Descending FlightAware
03:15AM -25.9290 27.8190 122° Southeast 337 388 14,400 -1,140 Descending FlightAware
03:16AM -25.9640 27.8830 121° Southeast 333 383 13,500 -1,140 Descending FlightAware
03:17AM -25.9960 27.9400 122° Southeast 322 371 12,800 -720 Descending FlightAware
03:17AM -26.0310 28.0030 122° Southeast 297 342 12,500 -480 Descending FlightAware
03:18AM -26.0490 28.0480 114° Southeast 275 316 12,200 -600 Descending FlightAware
03:18AM -26.0420 28.0740 73° East 259 298 12,000 -900 Descending FlightAware
03:19AM -26.0090 28.1120 46° Northeast 256 295 11,300 -1,080 Descending FlightAware
03:20AM -25.9740 28.1490 44° Northeast 256 295 10,600 -1,200 Descending FlightAware
03:20AM -25.9410 28.1940 51° Northeast 255 293 9,600 -1,440 Descending FlightAware
03:21AM -25.9400 28.2090 86° East 255 293 9,200 -1,620 Descending FlightAware
03:21AM -25.9410 28.2520 91° East 252 290 8,400 -1,200 Descending FlightAware
03:22AM -25.9410 28.2830 90° East 246 283 8,100 -780 Descending FlightAware
03:22AM -25.9450 28.3000 105° East 237 273 7,900 -840 Descending FlightAware
03:22AM -25.9590 28.3110 145° Southeast 222 255 7,700 -420 Descending FlightAware
03:22AM -25.9730 28.3100 184° South 208 239 7,700 -180 Level FlightAware
03:23AM -25.9950 28.3010 200° South 193 222 7,600 -360 Descending FlightAware
03:23AM -26.0200 28.2930 196° South 185 213 7,400 -660 Descending FlightAware
03:24AM -26.0400 28.2870 195° South 174 200 7,000 -900 Descending FlightAware
03:24AM -26.0620 28.2800 196° South 156 180 6,600 -840 Descending FlightAware
03:25AM -26.0830 28.2740 194° South 149 171 6,200 -900 Descending FlightAware
03:25AM -26.1000 28.2680 198° South 149 171 5,800 -840 Descending FlightAware
03:25AM -26.1110 28.2650 194° South 147 169 5,600 -660 Descending FlightAware
03:26AM -26.1330 28.2580 196° South 153 176 5,200 -720 Descending FlightAware